Time;durP1;ratioP1;P1;durP2;ratioP2;P2;SDS_P1;SDS_P2;PMS_P1;PMS_P2;Temp;Humidity;BMP_temperature;BMP_pressure;BME280_temperature;BME280_humidity;BME280_pressure;Samples;Min_cycle;Max_cycle;Signal;HPM_P1;HPM_P2
2022/08/29 00:02:00;;;;;;;2.42;1.40;;;;;;;;;;8283514;28;20029;-70
2022/08/29 00:06:01;;;;;;;3.38;1.50;;;;;;;;;;8283674;28;20017;-69
2022/08/29 00:10:02;;;;;;;3.40;1.48;;;;;;;;;;8283253;28;20048;-70
2022/08/29 00:14:02;;;;;;;3.28;1.55;;;;;;;;;;8285518;28;20034;-69
2022/08/29 00:18:03;;;;;;;2.92;1.65;;;;;;;;;;8281613;28;20630;-69
2022/08/29 00:22:03;;;;;;;3.20;1.70;;;;;;;;;;8281619;28;20022;-70
2022/08/29 00:26:04;;;;;;;1.87;1.37;;;;;;;;;;8282609;28;20430;-70
2022/08/29 00:30:05;;;;;;;4.82;1.65;;;;;;;;;;8281653;28;20342;-70
2022/08/29 00:34:05;;;;;;;2.38;1.50;;;;;;;;;;8285148;28;20479;-70
2022/08/29 00:38:06;;;;;;;4.45;1.42;;;;;;;;;;8273771;28;20051;-70
2022/08/29 00:42:06;;;;;;;5.15;1.65;;;;;;;;;;8285672;28;20034;-70
2022/08/29 00:46:12;;;;;;;3.67;1.42;;;;;;;;;;8288051;28;20691;-69
2022/08/29 00:50:18;;;;;;;5.15;1.42;;;;;;;;;;8287637;28;20026;-70
2022/08/29 00:54:18;;;;;;;4.05;1.50;;;;;;;;;;8289656;28;20052;-70
2022/08/29 00:58:25;;;;;;;3.10;1.38;;;;;;;;;;8288174;28;20055;-70
2022/08/29 01:02:25;;;;;;;4.28;1.60;;;;;;;;;;8286027;28;20029;-70
2022/08/29 01:06:26;;;;;;;3.30;1.60;;;;;;;;;;8289349;28;20104;-70
2022/08/29 01:14:46;;;;;;;2.30;1.50;;;;;;;;;;8286302;28;20816;-70
2022/08/29 01:18:49;;;;;;;4.10;1.60;;;;;;;;;;8285385;28;20437;-70
2022/08/29 01:22:56;;;;;;;4.63;1.50;;;;;;;;;;8286120;28;20022;-70
2022/08/29 01:26:56;;;;;;;5.20;1.52;;;;;;;;;;8275052;28;20805;-70
2022/08/29 01:31:11;;;;;;;5.13;1.65;;;;;;;;;;8287657;28;20477;-69
2022/08/29 01:35:11;;;;;;;3.85;1.48;;;;;;;;;;8288884;28;20037;-70
2022/08/29 01:39:12;;;;;;;3.17;1.70;;;;;;;;;;8288370;28;20041;-70
2022/08/29 01:43:12;;;;;;;3.13;1.48;;;;;;;;;;8284760;28;20065;-70
2022/08/29 01:47:13;;;;;;;3.15;1.42;;;;;;;;;;8285904;28;20042;-69
2022/08/29 01:51:13;;;;;;;2.92;1.40;;;;;;;;;;8284857;28;20029;-70
2022/08/29 01:55:14;;;;;;;2.95;1.40;;;;;;;;;;8284910;28;20065;-70
2022/08/29 01:59:15;;;;;;;6.88;1.58;;;;;;;;;;8285754;28;20044;-69
2022/08/29 02:03:17;;;;;;;5.25;1.58;;;;;;;;;;8285481;28;20038;-70
2022/08/29 02:07:18;;;;;;;3.40;1.40;;;;;;;;;;8286358;28;20022;-69
2022/08/29 02:11:19;;;;;;;5.88;1.48;;;;;;;;;;8286767;28;20705;-70
2022/08/29 02:15:20;;;;;;;3.60;1.33;;;;;;;;;;8283728;28;20049;-70
2022/08/29 02:19:20;;;;;;;4.65;1.92;;;;;;;;;;8286073;28;20793;-70
2022/08/29 02:23:20;;;;;;;3.23;1.60;;;;;;;;;;8272576;28;20030;-70
2022/08/29 02:27:20;;;;;;;4.80;1.50;;;;;;;;;;8285957;28;20025;-70
2022/08/29 02:31:23;;;;;;;3.45;1.42;;;;;;;;;;8281953;28;20116;-70
2022/08/29 02:35:23;;;;;;;3.47;1.60;;;;;;;;;;8285818;28;20033;-70
2022/08/29 02:39:23;;;;;;;4.37;1.60;;;;;;;;;;8282541;28;20025;-70
2022/08/29 02:43:25;;;;;;;6.75;1.48;;;;;;;;;;8283971;28;20021;-70
2022/08/29 02:47:25;;;;;;;4.63;1.70;;;;;;;;;;8282985;28;20530;-70
2022/08/29 02:51:27;;;;;;;7.13;1.70;;;;;;;;;;8282633;28;20148;-70
2022/08/29 02:55:27;;;;;;;2.85;1.52;;;;;;;;;;8284425;28;20017;-70
2022/08/29 02:59:27;;;;;;;4.43;1.50;;;;;;;;;;8284689;28;20041;-70
2022/08/29 03:03:27;;;;;;;4.15;1.40;;;;;;;;;;8283173;28;21312;-70
2022/08/29 03:07:28;;;;;;;4.97;1.52;;;;;;;;;;8284328;28;20041;-70
2022/08/29 03:11:28;;;;;;;2.53;1.50;;;;;;;;;;8282799;28;20145;-70
2022/08/29 03:15:28;;;;;;;5.38;1.85;;;;;;;;;;8283751;28;20076;-70
2022/08/29 03:19:29;;;;;;;3.35;1.40;;;;;;;;;;8283848;28;20022;-70
2022/08/29 03:23:29;;;;;;;2.80;1.17;;;;;;;;;;8281619;28;20036;-69
2022/08/29 03:27:29;;;;;;;2.92;1.55;;;;;;;;;;8283997;28;20017;-70
2022/08/29 03:31:30;;;;;;;3.42;1.65;;;;;;;;;;8281972;28;20041;-70
2022/08/29 03:35:30;;;;;;;4.82;1.42;;;;;;;;;;8284615;28;20063;-70
2022/08/29 03:39:30;;;;;;;5.27;1.70;;;;;;;;;;8284939;28;20775;-70
2022/08/29 03:43:31;;;;;;;3.27;1.37;;;;;;;;;;8282823;28;20025;-70
2022/08/29 03:47:31;;;;;;;2.67;1.60;;;;;;;;;;8281274;28;20030;-69
2022/08/29 03:51:33;;;;;;;5.65;1.52;;;;;;;;;;8281801;28;20081;-70
2022/08/29 03:55:33;;;;;;;3.60;1.65;;;;;;;;;;8282959;28;20577;-70
2022/08/29 03:59:34;;;;;;;4.70;1.60;;;;;;;;;;8282885;28;20114;-70
2022/08/29 04:03:34;;;;;;;3.72;1.75;;;;;;;;;;8279631;28;20029;-69
2022/08/29 04:07:42;;;;;;;3.55;1.65;;;;;;;;;;8282178;28;20022;-69
2022/08/29 04:11:43;;;;;;;5.00;1.50;;;;;;;;;;8280884;28;20038;-69
2022/08/29 04:15:43;;;;;;;3.78;1.42;;;;;;;;;;8276915;28;20052;-70
2022/08/29 04:19:43;;;;;;;6.75;1.60;;;;;;;;;;8287746;28;20037;-70
2022/08/29 04:23:44;;;;;;;5.60;1.50;;;;;;;;;;8288388;28;20018;-68
2022/08/29 04:27:45;;;;;;;3.83;1.30;;;;;;;;;;8288458;28;20033;-69
2022/08/29 04:31:45;;;;;;;3.67;1.63;;;;;;;;;;8286906;28;20613;-68
2022/08/29 04:35:45;;;;;;;3.70;1.60;;;;;;;;;;8289067;28;20064;-68
2022/08/29 04:39:45;;;;;;;3.17;1.40;;;;;;;;;;8290715;28;20030;-69
2022/08/29 04:43:46;;;;;;;4.10;1.35;;;;;;;;;;8287310;28;20017;-68
2022/08/29 04:47:46;;;;;;;4.13;1.50;;;;;;;;;;8287732;28;20107;-69
2022/08/29 04:51:46;;;;;;;2.13;1.40;;;;;;;;;;8289100;28;20387;-69
2022/08/29 04:55:54;;;;;;;2.38;1.50;;;;;;;;;;8287817;28;20458;-69
2022/08/29 04:59:55;;;;;;;5.10;1.60;;;;;;;;;;8288678;28;20806;-69
2022/08/29 05:03:56;;;;;;;4.68;1.60;;;;;;;;;;8284869;28;20092;-69
2022/08/29 05:07:56;;;;;;;3.50;1.50;;;;;;;;;;8278828;28;20021;-69
2022/08/29 05:11:57;;;;;;;3.78;1.77;;;;;;;;;;8287099;28;20037;-69
2022/08/29 05:15:57;;;;;;;3.08;1.52;;;;;;;;;;8289654;28;20038;-69
2022/08/29 05:19:57;;;;;;;4.05;1.77;;;;;;;;;;8286462;28;20827;-69
2022/08/29 05:23:58;;;;;;;2.53;1.30;;;;;;;;;;8287146;28;20029;-69
2022/08/29 05:27:58;;;;;;;6.30;2.40;;;;;;;;;;8286547;28;20020;-68
2022/08/29 05:31:58;;;;;;;5.30;1.75;;;;;;;;;;8286305;28;20128;-69
2022/08/29 05:35:59;;;;;;;4.00;1.35;;;;;;;;;;8284941;28;20025;-69
2022/08/29 05:39:59;;;;;;;2.80;1.23;;;;;;;;;;8286469;28;20029;-70
2022/08/29 05:43:59;;;;;;;5.18;1.55;;;;;;;;;;8284100;28;20032;-69
2022/08/29 05:48:02;;;;;;;3.10;1.55;;;;;;;;;;8285295;28;20034;-69
2022/08/29 05:52:02;;;;;;;3.95;1.88;;;;;;;;;;8285553;28;20026;-69
2022/08/29 05:56:03;;;;;;;3.88;1.70;;;;;;;;;;8287167;28;20047;-69
2022/08/29 06:00:04;;;;;;;3.70;1.77;;;;;;;;;;8285025;28;20107;-70
2022/08/29 06:04:05;;;;;;;4.20;1.83;;;;;;;;;;8285727;28;20322;-69
2022/08/29 06:08:05;;;;;;;6.18;2.05;;;;;;;;;;8285191;28;20908;-69
2022/08/29 06:12:06;;;;;;;4.30;1.60;;;;;;;;;;8283071;28;20115;-69
2022/08/29 06:16:09;;;;;;;3.90;1.77;;;;;;;;;;8285239;28;20164;-70
2022/08/29 06:20:09;;;;;;;4.15;2.03;;;;;;;;;;8277449;28;20032;-70
2022/08/29 06:24:10;;;;;;;4.55;1.80;;;;;;;;;;8285340;28;20021;-70
2022/08/29 06:28:10;;;;;;;4.70;2.08;;;;;;;;;;8283410;28;20430;-70
2022/08/29 06:32:11;;;;;;;9.57;2.30;;;;;;;;;;8283531;28;20048;-70
2022/08/29 06:36:12;;;;;;;5.60;2.00;;;;;;;;;;8283849;28;20060;-70
2022/08/29 06:40:12;;;;;;;3.88;1.90;;;;;;;;;;8282573;28;20053;-69
2022/08/29 06:44:12;;;;;;;5.20;1.80;;;;;;;;;;8282909;28;20944;-69
2022/08/29 06:48:12;;;;;;;3.60;1.90;;;;;;;;;;8284227;28;20042;-69
2022/08/29 06:52:13;;;;;;;3.85;1.67;;;;;;;;;;8283689;28;20029;-68
2022/08/29 06:56:13;;;;;;;6.13;1.90;;;;;;;;;;8277269;28;20026;-69
2022/08/29 07:00:14;;;;;;;4.78;2.00;;;;;;;;;;8282961;28;20696;-68
2022/08/29 07:04:15;;;;;;;4.82;2.00;;;;;;;;;;8280943;28;20491;-68
2022/08/29 07:08:15;;;;;;;7.50;2.40;;;;;;;;;;8276567;28;20036;-68
2022/08/29 07:12:15;;;;;;;5.65;2.05;;;;;;;;;;8281471;28;20203;-69
2022/08/29 07:16:17;;;;;;;3.97;1.83;;;;;;;;;;8281233;28;20087;-69
2022/08/29 07:20:17;;;;;;;5.37;2.03;;;;;;;;;;8280872;28;20672;-69
2022/08/29 07:24:17;;;;;;;5.57;1.67;;;;;;;;;;8282827;28;20023;-69
2022/08/29 07:28:17;;;;;;;6.10;2.38;;;;;;;;;;8279505;28;20473;-69
2022/08/29 07:32:18;;;;;;;4.55;2.10;;;;;;;;;;8274750;28;20107;-69
2022/08/29 07:36:18;;;;;;;4.33;1.60;;;;;;;;;;8280047;28;20738;-68
2022/08/29 07:40:19;;;;;;;3.60;2.00;;;;;;;;;;8258070;28;20695;-69
2022/08/29 07:44:19;;;;;;;3.42;1.92;;;;;;;;;;8282943;28;20032;-68
2022/08/29 07:48:20;;;;;;;3.58;1.70;;;;;;;;;;8279284;28;20029;-69
2022/08/29 07:52:20;;;;;;;2.95;1.95;;;;;;;;;;8280437;28;20059;-68
2022/08/29 07:56:25;;;;;;;4.53;2.15;;;;;;;;;;8280909;28;20029;-68
2022/08/29 08:00:25;;;;;;;4.45;2.13;;;;;;;;;;8281600;28;20103;-69
2022/08/29 08:04:25;;;;;;;5.90;2.10;;;;;;;;;;8281809;28;20152;-69
2022/08/29 08:08:26;;;;;;;6.45;2.15;;;;;;;;;;8280763;28;20040;-69
2022/08/29 08:12:26;;;;;;;5.95;1.95;;;;;;;;;;8268935;28;20028;-69
2022/08/29 08:16:27;;;;;;;4.45;1.90;;;;;;;;;;8279141;28;20415;-69
2022/08/29 08:20:27;;;;;;;4.95;2.20;;;;;;;;;;8279805;28;20071;-69
2022/08/29 08:24:27;;;;;;;6.35;2.17;;;;;;;;;;8280516;28;20029;-69
2022/08/29 08:28:29;;;;;;;5.03;2.00;;;;;;;;;;8283341;28;20091;-68
2022/08/29 08:32:29;;;;;;;7.45;2.30;;;;;;;;;;8280066;28;21026;-69
2022/08/29 08:36:29;;;;;;;4.22;2.00;;;;;;;;;;8282532;28;20068;-68
2022/08/29 08:40:30;;;;;;;4.97;2.00;;;;;;;;;;8281759;28;20035;-69
2022/08/29 08:44:48;;;;;;;4.03;2.20;;;;;;;;;;8268247;28;20265;-69
2022/08/29 08:48:49;;;;;;;3.75;2.10;;;;;;;;;;8276587;28;20120;-69
2022/08/29 08:52:57;;;;;;;3.22;2.10;;;;;;;;;;8278399;28;20030;-69
2022/08/29 08:57:02;;;;;;;6.88;2.40;;;;;;;;;;8279022;28;20055;-69
2022/08/29 09:01:17;;;;;;;7.40;2.42;;;;;;;;;;8277263;28;20041;-69
2022/08/29 09:05:38;;;;;;;5.50;2.03;;;;;;;;;;8282800;28;20021;-69
2022/08/29 09:09:48;;;;;;;5.38;2.22;;;;;;;;;;8283280;28;20346;-69
2022/08/29 09:13:57;;;;;;;2.58;1.85;;;;;;;;;;8268658;28;20021;-69
2022/08/29 09:17:59;;;;;;;7.38;2.25;;;;;;;;;;8283451;28;20094;-69
2022/08/29 09:22:06;;;;;;;4.05;2.08;;;;;;;;;;8283461;28;20794;-69
2022/08/29 09:26:07;;;;;;;5.90;2.30;;;;;;;;;;8283145;28;20124;-69
2022/08/29 09:30:07;;;;;;;6.72;2.47;;;;;;;;;;8283706;28;20115;-69
2022/08/29 09:34:11;;;;;;;8.50;2.25;;;;;;;;;;8282138;28;20160;-69
2022/08/29 09:38:17;;;;;;;3.85;2.30;;;;;;;;;;8284938;28;20203;-69
2022/08/29 09:42:20;;;;;;;6.57;2.20;;;;;;;;;;8281558;28;20132;-69
2022/08/29 09:46:24;;;;;;;3.95;1.90;;;;;;;;;;8282394;28;20034;-69
2022/08/29 09:50:26;;;;;;;6.68;2.45;;;;;;;;;;8281186;28;20022;-69
2022/08/29 09:54:29;;;;;;;6.25;2.20;;;;;;;;;;8284763;28;20905;-69
2022/08/29 09:58:34;;;;;;;5.47;2.08;;;;;;;;;;8281532;28;20029;-69
2022/08/29 10:02:42;;;;;;;4.65;2.00;;;;;;;;;;8280758;28;20040;-69
2022/08/29 10:06:44;;;;;;;6.53;2.25;;;;;;;;;;8273131;28;20145;-69
2022/08/29 10:10:49;;;;;;;3.83;2.03;;;;;;;;;;8281106;28;20470;-69
2022/08/29 10:14:55;;;;;;;7.55;2.20;;;;;;;;;;8279871;28;20383;-69
2022/08/29 10:19:01;;;;;;;2.60;1.77;;;;;;;;;;8268776;28;21019;-68
2022/08/29 10:23:05;;;;;;;3.63;2.00;;;;;;;;;;8264634;28;20018;-69
2022/08/29 10:27:15;;;;;;;6.82;2.13;;;;;;;;;;8281269;28;20072;-69
2022/08/29 10:31:28;;;;;;;3.88;1.83;;;;;;;;;;8279389;28;20030;-69
2022/08/29 10:35:45;;;;;;;4.03;2.08;;;;;;;;;;8281747;28;20043;-70
2022/08/29 10:40:02;;;;;;;4.00;1.92;;;;;;;;;;8258732;28;20107;-70
2022/08/29 10:44:08;;;;;;;6.75;2.05;;;;;;;;;;8281731;28;20025;-70
2022/08/29 10:48:10;;;;;;;4.82;2.00;;;;;;;;;;8280648;28;20045;-70
2022/08/29 10:52:19;;;;;;;6.93;1.95;;;;;;;;;;8278243;28;20021;-70
2022/08/29 10:56:25;;;;;;;8.57;2.00;;;;;;;;;;8281890;28;20037;-70
2022/08/29 11:00:47;;;;;;;4.70;1.80;;;;;;;;;;8278060;28;20069;-70
2022/08/29 11:04:52;;;;;;;5.63;1.80;;;;;;;;;;8281100;28;20033;-70
2022/08/29 11:08:56;;;;;;;4.75;1.80;;;;;;;;;;8280317;28;20034;-70
2022/08/29 11:13:00;;;;;;;4.88;1.90;;;;;;;;;;8279184;28;20043;-70
2022/08/29 11:17:01;;;;;;;5.43;2.10;;;;;;;;;;8277555;28;20026;-70
2022/08/29 11:21:12;;;;;;;2.63;1.67;;;;;;;;;;8279170;28;20056;-70
2022/08/29 11:25:14;;;;;;;4.97;1.90;;;;;;;;;;8280564;28;20518;-70
2022/08/29 11:29:33;;;;;;;4.40;1.90;;;;;;;;;;8280976;28;20100;-70
2022/08/29 11:33:33;;;;;;;4.25;2.00;;;;;;;;;;8277717;28;20076;-70
2022/08/29 11:37:52;;;;;;;7.97;2.30;;;;;;;;;;8279589;28;20116;-70
2022/08/29 11:41:55;;;;;;;4.03;1.73;;;;;;;;;;8280386;28;20036;-70
2022/08/29 11:46:03;;;;;;;4.32;2.13;;;;;;;;;;8279350;28;20037;-70
2022/08/29 11:50:03;;;;;;;4.10;1.92;;;;;;;;;;8278834;28;20041;-70
2022/08/29 11:54:22;;;;;;;3.58;1.83;;;;;;;;;;8278875;28;20033;-70
2022/08/29 11:58:22;;;;;;;4.05;2.05;;;;;;;;;;8280216;28;20026;-69
2022/08/29 12:02:31;;;;;;;4.20;1.80;;;;;;;;;;8277302;28;20045;-70
2022/08/29 12:06:49;;;;;;;3.08;2.00;;;;;;;;;;8280459;28;20124;-70
2022/08/29 12:10:51;;;;;;;2.78;1.80;;;;;;;;;;8277711;28;20037;-70
2022/08/29 12:14:51;;;;;;;2.70;1.60;;;;;;;;;;8279336;28;20079;-70
2022/08/29 12:18:53;;;;;;;2.88;2.00;;;;;;;;;;8277802;28;20117;-70
2022/08/29 12:23:13;;;;;;;4.73;1.87;;;;;;;;;;8278243;28;20655;-69
2022/08/29 12:27:24;;;;;;;4.78;2.10;;;;;;;;;;8264738;28;20857;-70
2022/08/29 12:31:27;;;;;;;3.95;2.08;;;;;;;;;;8277445;28;20661;-70
2022/08/29 12:35:53;;;;;;;7.05;1.83;;;;;;;;;;8278416;28;20128;-70
2022/08/29 12:40:02;;;;;;;3.17;1.88;;;;;;;;;;8285973;28;20141;-70
2022/08/29 12:44:06;;;;;;;2.80;1.83;;;;;;;;;;8283664;28;20055;-70
2022/08/29 12:48:15;;;;;;;4.68;1.80;;;;;;;;;;8283473;28;20185;-70
2022/08/29 12:52:29;;;;;;;2.55;1.80;;;;;;;;;;8283363;28;20040;-70
2022/08/29 12:56:30;;;;;;;4.00;2.00;;;;;;;;;;8285157;28;20033;-70
2022/08/29 13:00:31;;;;;;;4.20;1.90;;;;;;;;;;8282844;28;20041;-70
2022/08/29 13:04:32;;;;;;;2.42;1.75;;;;;;;;;;8283594;28;20111;-70
2022/08/29 13:08:35;;;;;;;4.15;1.83;;;;;;;;;;8285568;28;20036;-70
2022/08/29 13:12:36;;;;;;;3.45;1.80;;;;;;;;;;8281472;28;20018;-70
2022/08/29 13:16:37;;;;;;;4.85;2.17;;;;;;;;;;8284252;28;20782;-70
2022/08/29 13:20:41;;;;;;;3.92;2.08;;;;;;;;;;8281107;28;20060;-70
2022/08/29 13:24:41;;;;;;;3.17;1.98;;;;;;;;;;8284085;28;20022;-70
2022/08/29 13:28:46;;;;;;;6.03;2.40;;;;;;;;;;8283230;28;20129;-69
2022/08/29 13:32:55;;;;;;;4.30;2.00;;;;;;;;;;8282522;28;20063;-70
2022/08/29 13:36:59;;;;;;;5.20;1.83;;;;;;;;;;8282659;28;20143;-70
2022/08/29 13:41:00;;;;;;;4.90;1.90;;;;;;;;;;8280392;28;20118;-69
2022/08/29 13:45:03;;;;;;;3.88;1.90;;;;;;;;;;8282969;28;20027;-70
2022/08/29 13:49:03;;;;;;;3.03;1.98;;;;;;;;;;8265917;28;20049;-70
2022/08/29 13:53:04;;;;;;;4.67;2.13;;;;;;;;;;8282867;28;20804;-69
2022/08/29 13:57:04;;;;;;;3.85;2.00;;;;;;;;;;8282170;28;20045;-70
2022/08/29 14:01:05;;;;;;;3.17;2.03;;;;;;;;;;8280916;28;20095;-69
2022/08/29 14:05:05;;;;;;;4.83;1.87;;;;;;;;;;8280696;28;20756;-69
2022/08/29 14:09:06;;;;;;;7.68;1.95;;;;;;;;;;8282528;28;20138;-69
2022/08/29 14:13:08;;;;;;;3.97;2.00;;;;;;;;;;8281356;28;20029;-69
2022/08/29 14:17:08;;;;;;;4.40;2.00;;;;;;;;;;8281415;28;20955;-69
2022/08/29 14:21:09;;;;;;;4.80;2.00;;;;;;;;;;8283584;28;20033;-69
2022/08/29 14:25:09;;;;;;;5.30;2.23;;;;;;;;;;8282347;28;20561;-69
2022/08/29 14:29:10;;;;;;;3.60;2.05;;;;;;;;;;8282118;28;20025;-69
2022/08/29 14:33:10;;;;;;;3.57;1.80;;;;;;;;;;8280979;28;20037;-70
2022/08/29 14:37:11;;;;;;;4.03;1.90;;;;;;;;;;8284646;28;20056;-69
2022/08/29 14:41:11;;;;;;;4.80;2.25;;;;;;;;;;8269874;28;20117;-72
2022/08/29 14:45:12;;;;;;;3.30;1.98;;;;;;;;;;8282690;28;20136;-72
2022/08/29 14:49:12;;;;;;;4.78;1.80;;;;;;;;;;8274218;28;20025;-71
2022/08/29 14:53:12;;;;;;;4.05;1.73;;;;;;;;;;8283247;28;20113;-71
2022/08/29 14:57:12;;;;;;;4.63;2.10;;;;;;;;;;8284261;28;20037;-71
2022/08/29 15:01:13;;;;;;;6.18;2.20;;;;;;;;;;8280753;28;20049;-71
2022/08/29 15:05:13;;;;;;;3.20;1.83;;;;;;;;;;8280815;28;20029;-72
2022/08/29 15:09:14;;;;;;;5.93;2.20;;;;;;;;;;8281990;28;20279;-71
2022/08/29 15:13:15;;;;;;;3.15;1.90;;;;;;;;;;8281401;28;20268;-71
2022/08/29 15:17:15;;;;;;;2.50;1.85;;;;;;;;;;8270112;28;20482;-72
2022/08/29 15:21:15;;;;;;;5.72;2.10;;;;;;;;;;8280584;28;20029;-71
2022/08/29 15:25:16;;;;;;;2.40;2.00;;;;;;;;;;8282895;28;20084;-71
2022/08/29 15:29:16;;;;;;;5.25;2.15;;;;;;;;;;8279556;28;20056;-71
2022/08/29 15:33:17;;;;;;;3.50;2.05;;;;;;;;;;8279782;28;20124;-70
2022/08/29 15:37:17;;;;;;;3.03;1.95;;;;;;;;;;8280451;28;20094;-71
2022/08/29 15:41:17;;;;;;;4.35;2.00;;;;;;;;;;8279837;28;20057;-71
2022/08/29 15:45:18;;;;;;;3.63;2.00;;;;;;;;;;8266944;28;20756;-71
2022/08/29 15:49:19;;;;;;;2.67;2.00;;;;;;;;;;8276320;28;20041;-71
2022/08/29 15:53:19;;;;;;;4.22;2.05;;;;;;;;;;8277855;28;20760;-71
2022/08/29 15:57:19;;;;;;;5.78;1.90;;;;;;;;;;8277835;28;20030;-72
2022/08/29 16:01:21;;;;;;;3.28;1.73;;;;;;;;;;8277161;28;20067;-71
2022/08/29 16:05:22;;;;;;;3.08;1.90;;;;;;;;;;8280024;28;20072;-71
2022/08/29 16:09:23;;;;;;;2.38;1.70;;;;;;;;;;8283503;28;20065;-71
2022/08/29 16:13:23;;;;;;;2.70;1.90;;;;;;;;;;8285115;28;20041;-71
2022/08/29 16:17:23;;;;;;;2.20;1.80;;;;;;;;;;8270838;28;20136;-71
2022/08/29 16:21:23;;;;;;;3.03;1.77;;;;;;;;;;8283939;28;20029;-71
2022/08/29 16:25:24;;;;;;;2.53;1.90;;;;;;;;;;8284137;28;20049;-71
2022/08/29 16:29:25;;;;;;;4.65;2.10;;;;;;;;;;8285966;28;20036;-72
2022/08/29 16:33:25;;;;;;;6.15;2.05;;;;;;;;;;8282442;28;20069;-71
2022/08/29 16:37:25;;;;;;;2.33;1.97;;;;;;;;;;8286252;28;20037;-71
2022/08/29 16:41:27;;;;;;;4.27;2.00;;;;;;;;;;8285043;28;20017;-71
2022/08/29 16:45:27;;;;;;;3.00;1.77;;;;;;;;;;8284979;28;20033;-72
2022/08/29 16:49:27;;;;;;;2.88;1.90;;;;;;;;;;8284190;28;20257;-71
2022/08/29 16:53:27;;;;;;;5.30;1.90;;;;;;;;;;8284801;28;20153;-72
2022/08/29 16:57:27;;;;;;;1.92;1.77;;;;;;;;;;8283857;28;20112;-71
2022/08/29 17:01:32;;;;;;;1.83;1.60;;;;;;;;;;8282179;28;20065;-71
2022/08/29 17:05:32;;;;;;;4.70;1.85;;;;;;;;;;8283999;28;20549;-72
2022/08/29 17:17:34;;;;;;;3.58;1.88;;;;;;;;;;8284831;28;20037;-72
2022/08/29 17:21:34;;;;;;;4.15;1.60;;;;;;;;;;8260765;28;20034;-72
2022/08/29 17:25:34;;;;;;;2.67;1.70;;;;;;;;;;8283206;28;20028;-72
2022/08/29 17:29:36;;;;;;;5.03;2.10;;;;;;;;;;8284489;28;20037;-71
2022/08/29 17:33:36;;;;;;;3.53;1.85;;;;;;;;;;8281028;28;20042;-72
2022/08/29 17:37:36;;;;;;;2.73;1.73;;;;;;;;;;8274194;28;20034;-71
2022/08/29 17:41:37;;;;;;;2.10;1.83;;;;;;;;;;8281124;28;20032;-71
2022/08/29 17:45:39;;;;;;;4.07;1.85;;;;;;;;;;8283232;28;20036;-71
2022/08/29 17:49:39;;;;;;;3.28;1.80;;;;;;;;;;8283327;28;20034;-71
2022/08/29 17:53:39;;;;;;;1.65;1.52;;;;;;;;;;8282819;28;20882;-72
2022/08/29 17:57:40;;;;;;;2.00;1.55;;;;;;;;;;8281552;28;20028;-71
2022/08/29 18:01:40;;;;;;;3.88;1.80;;;;;;;;;;8279364;28;20045;-71
2022/08/29 18:05:40;;;;;;;2.35;1.70;;;;;;;;;;8282989;28;20017;-71
2022/08/29 18:09:41;;;;;;;3.53;1.70;;;;;;;;;;8284493;28;20139;-72
2022/08/29 18:13:41;;;;;;;2.05;1.75;;;;;;;;;;8282267;28;20025;-71
2022/08/29 18:17:44;;;;;;;3.35;1.63;;;;;;;;;;8281898;28;20033;-71
2022/08/29 18:21:44;;;;;;;2.47;1.90;;;;;;;;;;8280879;28;20033;-71
2022/08/29 18:25:44;;;;;;;2.27;1.70;;;;;;;;;;8271223;28;20045;-71
2022/08/29 18:29:44;;;;;;;4.07;1.80;;;;;;;;;;8281813;28;20107;-71
2022/08/29 18:33:46;;;;;;;2.97;1.70;;;;;;;;;;8267855;28;20167;-71
2022/08/29 18:37:46;;;;;;;2.83;1.70;;;;;;;;;;8281332;28;20696;-72
2022/08/29 18:41:46;;;;;;;3.47;1.70;;;;;;;;;;8270779;28;20030;-71
2022/08/29 18:45:47;;;;;;;2.55;1.52;;;;;;;;;;8279440;28;20028;-71
2022/08/29 18:54:08;;;;;;;4.20;1.98;;;;;;;;;;8280377;28;20603;-72
2022/08/29 18:58:08;;;;;;;5.60;1.80;;;;;;;;;;8281822;28;20148;-73
2022/08/29 19:02:14;;;;;;;4.43;1.90;;;;;;;;;;8275527;28;20147;-71
2022/08/29 19:06:14;;;;;;;3.00;1.80;;;;;;;;;;8282036;28;20898;-71
2022/08/29 19:10:15;;;;;;;2.58;1.90;;;;;;;;;;8270977;28;20029;-71
2022/08/29 19:14:15;;;;;;;3.30;1.80;;;;;;;;;;8279611;28;20034;-71
2022/08/29 19:18:17;;;;;;;3.63;1.80;;;;;;;;;;8279363;28;20087;-71
2022/08/29 19:22:18;;;;;;;2.33;1.63;;;;;;;;;;8279692;28;20439;-70
2022/08/29 19:26:20;;;;;;;5.68;1.80;;;;;;;;;;8282029;28;20025;-71
2022/08/29 19:30:21;;;;;;;2.35;1.65;;;;;;;;;;8279732;28;20196;-71
2022/08/29 19:34:22;;;;;;;2.58;1.60;;;;;;;;;;8279926;28;20133;-71
2022/08/29 19:38:22;;;;;;;2.60;1.70;;;;;;;;;;8279914;28;20111;-71
2022/08/29 19:42:22;;;;;;;2.05;1.60;;;;;;;;;;8280178;28;20044;-71
2022/08/29 19:46:23;;;;;;;3.67;1.70;;;;;;;;;;8279715;28;20038;-71
2022/08/29 19:50:23;;;;;;;2.35;2.00;;;;;;;;;;8277867;28;20080;-71
2022/08/29 19:54:23;;;;;;;3.83;1.60;;;;;;;;;;8268072;28;20037;-71
2022/08/29 19:58:24;;;;;;;5.47;1.73;;;;;;;;;;8279556;28;21101;-71
2022/08/29 20:02:24;;;;;;;2.27;1.57;;;;;;;;;;8276018;28;20084;-71
2022/08/29 20:06:25;;;;;;;4.88;1.60;;;;;;;;;;8277650;28;20253;-71
2022/08/29 20:10:26;;;;;;;5.13;1.98;;;;;;;;;;8278589;28;20033;-71
2022/08/29 20:14:27;;;;;;;2.33;1.80;;;;;;;;;;8278842;28;20879;-71
2022/08/29 20:18:27;;;;;;;3.20;1.83;;;;;;;;;;8278205;28;20034;-72
2022/08/29 20:22:28;;;;;;;4.78;1.80;;;;;;;;;;8268428;28;20032;-71
2022/08/29 20:26:31;;;;;;;4.07;1.77;;;;;;;;;;8274787;28;20030;-72
2022/08/29 20:30:32;;;;;;;5.10;1.83;;;;;;;;;;8277572;28;20039;-71
2022/08/29 20:34:32;;;;;;;1.90;1.55;;;;;;;;;;8278040;28;20029;-72
2022/08/29 20:38:33;;;;;;;2.72;1.60;;;;;;;;;;8278532;28;20074;-73
2022/08/29 20:42:33;;;;;;;3.80;1.70;;;;;;;;;;8278868;28;20022;-72
2022/08/29 20:46:39;;;;;;;3.47;1.48;;;;;;;;;;8278066;28;20162;-73
2022/08/29 20:50:39;;;;;;;2.42;1.63;;;;;;;;;;8261456;28;20017;-73
2022/08/29 20:54:39;;;;;;;6.45;1.75;;;;;;;;;;8277333;28;21014;-72
2022/08/29 20:58:39;;;;;;;3.10;1.77;;;;;;;;;;8282020;28;20760;-72
2022/08/29 21:07:00;;;;;;;2.42;1.88;;;;;;;;;;8284700;28;20128;-72
2022/08/29 21:11:02;;;;;;;2.75;1.60;;;;;;;;;;8284256;28;20021;-72
2022/08/29 21:15:02;;;;;;;2.60;1.50;;;;;;;;;;8283668;28;20017;-71
2022/08/29 21:19:07;;;;;;;2.08;1.40;;;;;;;;;;8268102;28;20034;-71
2022/08/29 21:23:07;;;;;;;2.03;1.65;;;;;;;;;;8283538;28;20049;-71
2022/08/29 21:27:08;;;;;;;3.63;1.80;;;;;;;;;;8284791;28;20033;-71
2022/08/29 21:31:11;;;;;;;3.65;1.85;;;;;;;;;;8282508;28;20077;-72
2022/08/29 21:35:11;;;;;;;3.30;2.08;;;;;;;;;;8282444;28;20565;-71
2022/08/29 21:39:12;;;;;;;4.10;1.80;;;;;;;;;;8281607;28;20030;-72
2022/08/29 21:43:12;;;;;;;2.70;1.60;;;;;;;;;;8282223;28;20031;-71
2022/08/29 21:47:12;;;;;;;2.60;1.88;;;;;;;;;;8283425;28;20058;-72
2022/08/29 21:51:16;;;;;;;2.97;1.80;;;;;;;;;;8282242;28;20102;-72
2022/08/29 21:55:17;;;;;;;3.92;1.98;;;;;;;;;;8283087;28;20029;-72
2022/08/29 21:59:19;;;;;;;7.50;1.98;;;;;;;;;;8283641;28;20034;-72
2022/08/29 22:03:19;;;;;;;3.25;1.90;;;;;;;;;;8281135;28;20041;-72
2022/08/29 22:07:21;;;;;;;2.88;1.80;;;;;;;;;;8282379;28;20021;-71
2022/08/29 22:11:23;;;;;;;3.88;1.80;;;;;;;;;;8280620;28;20044;-71
2022/08/29 22:19:42;;;;;;;3.35;1.70;;;;;;;;;;8283375;28;20510;-72
2022/08/29 22:23:43;;;;;;;2.33;1.60;;;;;;;;;;8280373;28;20363;-71
2022/08/29 22:27:43;;;;;;;4.07;1.92;;;;;;;;;;8282087;28;20037;-71
2022/08/29 22:31:44;;;;;;;6.63;1.42;;;;;;;;;;8283872;28;20026;-72
2022/08/29 22:35:44;;;;;;;2.97;1.60;;;;;;;;;;8283027;28;20093;-71
2022/08/29 22:39:44;;;;;;;4.63;1.90;;;;;;;;;;8282651;28;20072;-72
2022/08/29 22:43:44;;;;;;;3.65;1.67;;;;;;;;;;8276127;28;20022;-71
2022/08/29 22:47:45;;;;;;;1.75;1.60;;;;;;;;;;8285246;28;20057;-71
2022/08/29 22:51:47;;;;;;;1.90;1.33;;;;;;;;;;8283688;28;20033;-72
2022/08/29 22:55:47;;;;;;;3.67;1.50;;;;;;;;;;8285233;28;20029;-72
2022/08/29 22:59:48;;;;;;;4.35;1.75;;;;;;;;;;8285130;28;20654;-72
2022/08/29 23:03:48;;;;;;;2.22;1.60;;;;;;;;;;8283457;28;20215;-72
2022/08/29 23:07:48;;;;;;;3.58;1.70;;;;;;;;;;8283170;28;20055;-72
2022/08/29 23:11:49;;;;;;;3.37;1.60;;;;;;;;;;8281970;28;20103;-72
2022/08/29 23:15:49;;;;;;;4.15;1.50;;;;;;;;;;8283986;28;20797;-71
2022/08/29 23:19:49;;;;;;;6.17;1.80;;;;;;;;;;8273676;28;20036;-72
2022/08/29 23:23:50;;;;;;;3.88;1.50;;;;;;;;;;8281975;28;20357;-71
2022/08/29 23:27:50;;;;;;;2.55;1.70;;;;;;;;;;8283876;28;20492;-71
2022/08/29 23:31:50;;;;;;;2.22;1.45;;;;;;;;;;8280464;28;20398;-72
2022/08/29 23:35:51;;;;;;;2.37;1.60;;;;;;;;;;8283741;28;20044;-72
2022/08/29 23:39:51;;;;;;;5.05;1.50;;;;;;;;;;8282266;28;20029;-72
2022/08/29 23:43:51;;;;;;;3.03;1.70;;;;;;;;;;8281008;28;20033;-71
2022/08/29 23:47:52;;;;;;;2.75;1.60;;;;;;;;;;8282296;28;20037;-72
2022/08/29 23:51:52;;;;;;;2.75;1.60;;;;;;;;;;8284079;28;20104;-72
2022/08/29 23:55:52;;;;;;;2.13;1.60;;;;;;;;;;8284291;28;20022;-72
